Aérodrome :
LOGIN :

S'inscrire | Disclaimer

   EN    FR    IT 

 










Légende :    VFR   VFR Marginal   IFR   IFR Intensif   IFR Très Intensif
Visi : 
Plafond : 
>= 8 km
>= 3000ft
5 à 8 km
1000 à 3000 ft
1500m à 5 km
500 à 1000 ft
800 à 1500m
200 à 500 ft
< 800m
< 200 ft
Symboles :   Orages  Brouillard  Fortes neiges  Fortes précipitations  Vent > 20 kt
SIGMETs :   Divers  Orages  Givrage  Turbulence  Onde Orograph.  Cendres Volcan.







- Altitude de l'aérodrome : 1234 ft
- Code IATA : LUX


ELLX - Luxembourg Findel

DERNIER METAR :
  • 121750Z 23006KT 9999 FEW021 M00/M01 Q1014 R99/19//59 NOSIG

METARs EXPIRÉS :
  • 121720Z 23007KT CAVOK M01/M02 Q1013 R99/19//59 NOSIG
  • 121650Z 24008KT 9999 FEW020 00/M01 Q1013 R24/19//59 NOSIG
  • 121620Z 23007KT 9999 -SN FEW020 00/M02 Q1013 NOSIG
  • 121550Z 23007KT 9999 FEW020CB 02/M02 Q1012 NOSIG
  • 121520Z 26010KT 9999 FEW018CB 02/M02 Q1012 NOSIG

TAF TAF ELLX
Valide du 12 à 18h jusqu'au 14 à 00h UTC


121700Z 1218/1324 24010KT 9999 FEW020
PROB30
TEMPO 1218/1220 -SHSNRA BKN015TCU
BECMG 1223/1301 18005KT 3000 BR BKN003
BECMG 1306/1309 18015G25KT 3000 -SN BKN005 BKN007
BECMG 1313/1315 7000 -RA BKN015
TEMPO 1313/1318 RA BKN012
BECMG 1320/1322 RA SCT005 BKN007
BECMG 1322/1324 25015G30KT
ATIS : +352 4798 27300
Météo : +352 4798 27010 / 27050
Pas de NOTAMs connus pour ce terrain.



MET'MAP, la Météo Aéronautique d'un coup d'oeil ! - Copyright ORBIFLY Décembre 2007 - Disclaimer

ORBIFLY MET'MAP TEAM :

Programmation & Développement : Alexandra Zaïnal
Conception & Développement : Baudouin d'Aumeries
Co-Programmation & Développement : Marc-Olivier Méhu
Soutien technique & logistique : Manuel Goepfert

Contact : metmap@orbifly.com




SOURCES & CREDITS :

   NOAA